createdAt,value
2022-09-01T00:03:00.988Z,7.97
2022-09-01T00:05:55.364Z,7.78
2022-09-01T00:08:43.608Z,6.13
2022-09-01T00:11:33.242Z,7.97
2022-09-01T00:14:30.013Z,6.75
2022-09-01T00:17:19.659Z,6.78
2022-09-01T00:20:08.870Z,8.68
2022-09-01T00:23:00.727Z,7.72
2022-09-01T00:28:37.763Z,6.32
2022-09-01T00:31:26.351Z,6.95
2022-09-01T00:34:15.831Z,7.95
2022-09-01T00:37:04.406Z,7.55
2022-09-01T00:39:54.995Z,6.35
2022-09-01T00:42:48.987Z,7.25
2022-09-01T00:45:37.509Z,7.18
2022-09-01T00:48:26.055Z,6.95
2022-09-01T00:51:14.990Z,6.65
2022-09-01T00:54:04.560Z,7.47
2022-09-01T00:56:57.435Z,6.32
2022-09-01T00:59:57.782Z,6.60
2022-09-01T01:02:47.486Z,6.55
2022-09-01T01:05:40.524Z,6.60
2022-09-01T01:08:34.277Z,7.07
2022-09-01T01:11:23.590Z,6.50
2022-09-01T01:14:13.534Z,7.88
2022-09-01T01:17:02.824Z,6.97
2022-09-01T01:20:11.208Z,6.65
2022-09-01T01:23:09.162Z,6.43
2022-09-01T01:26:01.746Z,5.93
2022-09-01T01:28:55.100Z,6.93
2022-09-01T01:31:44.925Z,5.90
2022-09-01T01:34:34.452Z,7.55
2022-09-01T01:37:24.611Z,5.82
2022-09-01T01:40:15.832Z,6.10
2022-09-01T01:43:07.011Z,5.80
2022-09-01T01:46:02.763Z,6.40
2022-09-01T01:48:57.980Z,5.85
2022-09-01T01:51:47.392Z,6.43
2022-09-01T01:54:35.981Z,5.95
2022-09-01T01:57:24.448Z,6.25
2022-09-01T02:00:19.668Z,5.93
2022-09-01T02:03:19.146Z,7.38
2022-09-01T02:06:10.017Z,6.72
2022-09-01T02:09:02.761Z,5.97
2022-09-01T02:11:54.476Z,7.43
2022-09-01T02:14:43.868Z,5.75
2022-09-01T02:17:33.650Z,7.82
2022-09-01T02:20:23.208Z,6.45
2022-09-01T02:23:12.554Z,5.35
2022-09-01T02:26:18.054Z,6.00
2022-09-01T02:29:18.128Z,5.70
2022-09-01T02:32:07.194Z,5.65
2022-09-01T02:35:01.499Z,6.07
2022-09-01T02:37:52.083Z,6.20
2022-09-01T02:40:40.834Z,5.72
2022-09-01T02:43:31.799Z,5.80
2022-09-01T02:46:24.401Z,6.00
2022-09-01T02:49:17.627Z,5.15
2022-09-01T02:52:08.263Z,5.05
2022-09-01T02:54:56.661Z,5.43
2022-09-01T02:57:46.287Z,5.07
2022-09-01T03:00:39.551Z,5.65
2022-09-01T03:03:28.911Z,5.20
2022-09-01T03:06:18.572Z,4.75
2022-09-01T03:09:11.718Z,5.60
2022-09-01T03:11:59.859Z,5.07
2022-09-01T03:14:48.876Z,6.10
2022-09-01T03:17:36.827Z,5.63
2022-09-01T03:20:25.343Z,5.30
2022-09-01T03:23:18.336Z,5.93
2022-09-01T03:26:11.136Z,5.85
2022-09-01T03:28:59.718Z,5.53
2022-09-01T03:31:48.840Z,4.93
2022-09-01T03:34:37.456Z,5.60
2022-09-01T03:37:27.124Z,4.60
2022-09-01T03:40:18.541Z,4.13
2022-09-01T03:43:12.117Z,5.80
2022-09-01T03:46:01.734Z,5.50
2022-09-01T03:48:53.273Z,5.55
2022-09-01T03:54:30.863Z,4.47
2022-09-01T03:57:19.148Z,4.45
2022-09-01T04:00:13.781Z,5.78
2022-09-01T04:03:03.360Z,5.32
2022-09-01T04:05:54.285Z,4.88
2022-09-01T04:08:43.104Z,4.72
2022-09-01T04:11:32.500Z,4.90
2022-09-01T04:14:20.866Z,4.47
2022-09-01T04:17:30.732Z,4.73
2022-09-01T04:20:20.299Z,4.80
2022-09-01T04:23:11.253Z,4.70
2022-09-01T04:26:08.986Z,4.68
2022-09-01T04:28:58.783Z,4.90
2022-09-01T04:31:48.910Z,5.38
2022-09-01T04:34:40.682Z,4.93
2022-09-01T04:37:31.680Z,4.80
2022-09-01T04:40:24.080Z,5.35
2022-09-01T04:43:16.838Z,4.93
2022-09-01T04:46:05.730Z,4.65
2022-09-01T04:48:55.439Z,4.88
2022-09-01T04:51:50.055Z,4.05
2022-09-01T04:54:42.050Z,5.78
2022-09-01T04:57:31.721Z,6.25
2022-09-01T05:00:24.415Z,5.07
2022-09-01T05:03:13.863Z,4.93
2022-09-01T05:06:21.514Z,4.30
2022-09-01T05:09:18.481Z,4.40
2022-09-01T05:12:15.947Z,4.45
2022-09-01T05:15:09.866Z,5.32
2022-09-01T05:17:59.949Z,5.63
2022-09-01T05:23:37.563Z,4.97
2022-09-01T05:26:31.872Z,5.40
2022-09-01T05:29:21.168Z,4.63
2022-09-01T05:32:12.852Z,5.60
2022-09-01T05:35:02.217Z,5.30
2022-09-01T05:37:52.057Z,5.65
2022-09-01T05:40:41.567Z,5.63
2022-09-01T05:43:32.847Z,5.97
2022-09-01T05:46:23.740Z,6.65
2022-09-01T05:49:17.072Z,5.53
2022-09-01T05:52:09.462Z,4.63
2022-09-01T05:55:00.352Z,5.43
2022-09-01T05:57:50.513Z,5.15
2022-09-01T06:00:42.892Z,5.53
2022-09-01T06:03:32.981Z,5.05
2022-09-01T06:06:43.765Z,5.40
2022-09-01T06:09:40.878Z,4.78
2022-09-01T06:12:29.755Z,5.13
2022-09-01T06:15:18.684Z,5.38
2022-09-01T06:18:15.038Z,4.50
2022-09-01T06:21:14.745Z,4.17
2022-09-01T06:24:07.251Z,5.30
2022-09-01T06:29:43.655Z,4.82
2022-09-01T06:32:34.480Z,6.15
2022-09-01T06:35:30.150Z,4.43
2022-09-01T06:38:21.045Z,4.90
2022-09-01T06:41:13.267Z,4.80
2022-09-01T06:44:02.145Z,4.65
2022-09-01T06:46:51.961Z,5.43
2022-09-01T06:49:41.169Z,5.35
2022-09-01T06:58:40.614Z,4.40
2022-09-01T07:01:30.502Z,5.20
2022-09-01T07:04:22.423Z,5.03
2022-09-01T07:14:17.234Z,6.35
2022-09-01T07:17:23.729Z,4.53
2022-09-01T07:20:28.474Z,5.10
2022-09-01T07:23:19.967Z,5.53
2022-09-01T07:26:10.241Z,5.10
2022-09-01T07:29:06.227Z,4.95
2022-09-01T07:42:31.733Z,4.28
2022-09-01T07:45:25.563Z,4.53
2022-09-01T07:48:35.443Z,4.50
2022-09-01T07:51:40.580Z,3.92
2022-09-01T07:54:30.427Z,3.92
2022-09-01T07:57:23.056Z,4.78
2022-09-01T08:00:13.363Z,4.60
2022-09-01T08:03:01.930Z,4.70
2022-09-01T08:05:54.089Z,3.90
2022-09-01T08:08:42.935Z,4.80
2022-09-01T08:12:00.707Z,3.88
2022-09-01T08:14:42.544Z,5.18
2022-09-01T08:17:34.492Z,5.72
2022-09-01T08:20:45.409Z,4.93
2022-09-01T08:23:46.057Z,3.47
2022-09-01T08:26:36.287Z,5.20
2022-09-01T08:29:26.744Z,4.50
2022-09-01T08:32:16.047Z,4.53
2022-09-01T08:35:06.152Z,3.95
2022-09-01T08:37:54.798Z,4.20
2022-09-01T08:40:56.105Z,4.47
2022-09-01T08:43:58.360Z,3.90
2022-09-01T08:46:47.366Z,4.85
2022-09-01T08:49:44.256Z,3.90
2022-09-01T08:52:36.277Z,4.43
2022-09-01T08:55:32.762Z,4.10
2022-09-01T08:58:22.414Z,4.90
2022-09-01T09:01:37.773Z,4.70
2022-09-01T09:04:51.944Z,4.88
2022-09-01T09:08:06.603Z,3.88
2022-09-01T09:11:00.107Z,4.72
2022-09-01T09:14:04.955Z,3.65
2022-09-01T09:16:56.412Z,4.38
2022-09-01T09:22:35.665Z,3.78
2022-09-01T09:25:24.739Z,3.70
2022-09-01T09:28:14.981Z,5.95
2022-09-01T09:31:29.867Z,3.40
2022-09-01T09:34:30.585Z,4.60
2022-09-01T09:37:23.304Z,4.97
2022-09-01T09:40:16.203Z,3.70
2022-09-01T09:43:08.888Z,4.00
2022-09-01T09:46:28.200Z,4.35
2022-09-01T09:49:34.921Z,4.93
2022-09-01T09:52:26.161Z,4.13
2022-09-01T09:55:27.648Z,4.57
2022-09-01T09:58:16.255Z,3.80
2022-09-01T10:01:11.304Z,5.32
2022-09-01T10:04:03.993Z,3.97
2022-09-01T10:06:54.393Z,5.03
2022-09-01T10:09:42.855Z,4.47
2022-09-01T10:12:33.490Z,3.80
2022-09-01T10:15:25.188Z,3.65
2022-09-01T10:18:28.442Z,4.13
2022-09-01T10:21:24.480Z,4.18
2022-09-01T10:24:22.423Z,3.53
2022-09-01T10:27:20.506Z,3.65
2022-09-01T10:30:18.675Z,3.97
2022-09-01T10:33:19.260Z,3.80
2022-09-01T10:36:10.610Z,4.53
2022-09-01T10:39:04.951Z,4.90
2022-09-01T10:42:00.330Z,4.03
2022-09-01T10:44:59.042Z,4.50
2022-09-01T10:47:48.973Z,4.82
2022-09-01T10:50:37.997Z,4.07
2022-09-01T10:53:42.066Z,3.92
2022-09-01T10:56:44.331Z,4.30
2022-09-01T10:59:38.698Z,4.70
2022-09-01T11:02:36.326Z,4.97
2022-09-01T11:06:12.028Z,4.30
2022-09-01T11:09:07.003Z,3.83
2022-09-01T11:12:30.408Z,3.80
2022-09-01T11:15:38.594Z,4.15
2022-09-01T11:18:29.556Z,3.90
2022-09-01T11:21:27.260Z,4.13
2022-09-01T11:24:54.471Z,3.67
2022-09-01T11:28:02.746Z,3.53
2022-09-01T11:30:55.412Z,4.80
2022-09-01T11:34:00.982Z,4.38
2022-09-01T11:37:00.365Z,4.05
2022-09-01T11:39:52.241Z,3.97
2022-09-01T11:42:46.760Z,3.88
2022-09-01T11:45:44.445Z,4.70
2022-09-01T11:48:33.626Z,4.57
2022-09-01T11:51:22.583Z,4.57
2022-09-01T11:54:13.855Z,5.60
2022-09-01T12:00:10.159Z,5.57
2022-09-01T12:03:01.744Z,4.22
2022-09-01T12:05:59.311Z,4.70
2022-09-01T12:08:55.962Z,4.38
2022-09-01T12:11:45.571Z,4.35
2022-09-01T12:15:02.110Z,4.50
2022-09-01T12:17:44.236Z,4.88
2022-09-01T12:20:38.956Z,4.13
2022-09-01T12:23:29.708Z,4.43
2022-09-01T12:26:22.371Z,4.22
2022-09-01T12:29:13.850Z,4.28
2022-09-01T12:32:03.424Z,3.80
2022-09-01T12:35:07.432Z,4.35
2022-09-01T12:38:18.252Z,4.70
2022-09-01T12:41:29.046Z,4.55
2022-09-01T12:44:33.466Z,4.63
2022-09-01T12:47:50.926Z,4.40
2022-09-01T12:50:47.276Z,4.07
2022-09-01T12:53:37.202Z,4.60
2022-09-01T12:56:31.587Z,4.00
2022-09-01T12:59:35.721Z,4.00
2022-09-01T13:02:34.852Z,4.40
2022-09-01T13:05:31.174Z,5.18
2022-09-01T13:08:27.082Z,4.00
2022-09-01T13:11:20.230Z,4.00
2022-09-01T13:14:09.344Z,5.20
2022-09-01T13:16:58.267Z,4.97
2022-09-01T13:19:48.926Z,4.20
2022-09-01T13:22:38.284Z,4.70
2022-09-01T13:25:27.291Z,5.65
2022-09-01T13:28:17.227Z,5.38
2022-09-01T13:34:21.803Z,4.57
2022-09-01T13:37:12.464Z,4.72
2022-09-01T13:40:01.823Z,4.65
2022-09-01T13:42:53.266Z,4.13
2022-09-01T13:45:42.329Z,6.13
2022-09-01T13:51:44.010Z,5.27
2022-09-01T13:54:34.068Z,4.60
2022-09-01T13:57:22.693Z,4.78
2022-09-01T14:00:14.181Z,4.70
2022-09-01T14:03:07.571Z,4.80
2022-09-01T14:05:56.163Z,4.28
2022-09-01T14:08:44.460Z,5.15
2022-09-01T14:11:34.428Z,5.00
2022-09-01T14:14:22.858Z,4.25
2022-09-01T14:17:11.787Z,5.43
2022-09-01T14:20:00.338Z,4.90
2022-09-01T14:22:49.391Z,4.20
2022-09-01T14:25:38.984Z,4.57
2022-09-01T14:28:28.688Z,4.50
2022-09-01T14:31:18.944Z,4.18
2022-09-01T14:34:09.045Z,4.30
2022-09-01T14:36:57.360Z,4.60
2022-09-01T14:39:51.020Z,4.40
2022-09-01T14:42:39.792Z,4.18
2022-09-01T14:45:30.288Z,5.35
2022-09-01T14:48:20.729Z,5.65
2022-09-01T14:51:10.974Z,4.78
2022-09-01T14:53:59.314Z,5.18
2022-09-01T14:59:56.302Z,4.50
2022-09-01T15:02:46.786Z,4.00
2022-09-01T15:05:39.487Z,4.47
2022-09-01T15:08:28.406Z,5.22
2022-09-01T15:11:19.397Z,4.55
2022-09-01T15:14:09.588Z,3.85
2022-09-01T15:16:57.719Z,5.22
2022-09-01T15:19:47.858Z,4.40
2022-09-01T15:22:36.146Z,4.57
2022-09-01T15:25:25.318Z,4.63
2022-09-01T15:28:14.314Z,4.95
2022-09-01T15:31:03.705Z,4.43
2022-09-01T15:33:52.359Z,5.75
2022-09-01T15:36:45.500Z,5.07
2022-09-01T15:39:37.780Z,4.85
2022-09-01T15:42:27.273Z,4.72
2022-09-01T15:45:18.697Z,5.20
2022-09-01T15:48:07.660Z,4.28
2022-09-01T15:51:07.529Z,5.35
2022-09-01T15:54:00.316Z,5.22
2022-09-01T15:56:49.848Z,5.43
2022-09-01T15:59:40.171Z,4.72
2022-09-01T16:02:28.517Z,4.50
2022-09-01T16:05:18.257Z,5.15
2022-09-01T16:08:09.696Z,5.13
2022-09-01T16:11:00.462Z,4.85
2022-09-01T16:13:48.511Z,5.32
2022-09-01T16:16:53.225Z,4.85
2022-09-01T16:19:52.315Z,5.70
2022-09-01T16:22:46.158Z,5.03
2022-09-01T16:25:35.281Z,3.88
2022-09-01T16:28:30.142Z,5.13
2022-09-01T16:31:24.971Z,5.30
2022-09-01T16:34:18.267Z,4.85
2022-09-01T16:37:16.269Z,7.05
2022-09-01T16:40:15.045Z,5.95
2022-09-01T16:43:09.682Z,4.97
2022-09-01T16:46:08.979Z,4.40
2022-09-01T16:49:18.197Z,5.57
2022-09-01T16:52:15.954Z,4.55
2022-09-01T16:55:19.985Z,4.15
2022-09-01T16:58:21.736Z,5.18
2022-09-01T17:01:27.178Z,6.10
2022-09-01T17:04:29.465Z,5.40
2022-09-01T17:07:24.379Z,5.35
2022-09-01T17:10:26.062Z,4.63
2022-09-01T17:13:20.202Z,4.88
2022-09-01T17:16:13.048Z,5.05
2022-09-01T17:19:06.462Z,5.45
2022-09-01T17:22:02.359Z,6.45
2022-09-01T17:24:56.162Z,4.40
2022-09-01T17:27:53.705Z,5.03
2022-09-01T17:30:48.029Z,4.57
2022-09-01T17:33:42.484Z,5.00
2022-09-01T17:36:46.673Z,4.20
2022-09-01T17:39:45.710Z,5.65
2022-09-01T17:42:43.041Z,5.50
2022-09-01T17:45:39.848Z,5.20
2022-09-01T17:48:39.978Z,4.35
2022-09-01T17:51:36.175Z,5.57
2022-09-01T17:54:36.711Z,4.38
2022-09-01T17:57:31.333Z,4.95
2022-09-01T18:00:24.628Z,4.53
2022-09-01T18:03:33.046Z,5.30
2022-09-01T18:06:29.875Z,5.30
2022-09-01T18:09:23.680Z,4.70
2022-09-01T18:12:17.728Z,5.75
2022-09-01T18:15:09.940Z,5.30
2022-09-01T18:18:09.586Z,4.55
2022-09-01T18:21:02.916Z,5.47
2022-09-01T18:23:55.856Z,4.45
2022-09-01T18:26:49.515Z,4.95
2022-09-01T18:29:39.899Z,4.90
2022-09-01T18:32:39.050Z,4.82
2022-09-01T18:35:34.274Z,4.75
2022-09-01T18:38:33.983Z,4.70
2022-09-01T18:41:32.846Z,5.10
2022-09-01T18:44:34.861Z,4.57
2022-09-01T18:47:32.171Z,4.78
2022-09-01T18:50:27.976Z,5.15
2022-09-01T18:53:29.282Z,4.10
2022-09-01T18:56:26.947Z,5.22
2022-09-01T18:59:46.097Z,5.00
2022-09-01T19:02:57.573Z,4.72
2022-09-01T19:08:55.355Z,4.75
2022-09-01T19:11:56.056Z,5.15
2022-09-01T19:14:53.980Z,5.60
2022-09-01T19:18:13.312Z,5.00
2022-09-01T19:21:07.928Z,5.25
2022-09-01T19:24:02.634Z,5.35
2022-09-01T19:26:56.107Z,5.18
2022-09-01T19:29:49.050Z,4.47
2022-09-01T19:32:38.788Z,5.55
2022-09-01T19:35:31.051Z,4.90
2022-09-01T19:38:27.475Z,5.68
2022-09-01T19:41:22.715Z,4.50
2022-09-01T19:44:21.548Z,4.95
2022-09-01T19:47:14.751Z,4.90
2022-09-01T19:50:11.085Z,4.50
2022-09-01T19:53:06.038Z,4.47
2022-09-01T19:55:59.867Z,5.00
2022-09-01T19:58:55.875Z,4.78
2022-09-01T20:01:49.548Z,5.30
2022-09-01T20:04:43.555Z,5.25
2022-09-01T20:07:37.651Z,4.75
2022-09-01T20:10:55.262Z,4.43
2022-09-01T20:14:01.965Z,4.47
2022-09-01T20:16:53.523Z,5.68
2022-09-01T20:19:47.002Z,4.43
2022-09-01T20:22:42.042Z,5.05
2022-09-01T20:25:38.571Z,4.53
2022-09-01T20:28:32.295Z,5.18
2022-09-01T20:31:25.486Z,5.15
2022-09-01T20:34:21.029Z,6.18
2022-09-01T20:37:13.719Z,5.45
2022-09-01T20:40:06.763Z,5.35
2022-09-01T20:43:12.770Z,5.13
2022-09-01T20:46:01.433Z,4.40
2022-09-01T20:48:49.879Z,4.47
2022-09-01T20:51:45.318Z,4.78
2022-09-01T20:54:40.210Z,4.38
2022-09-01T20:57:36.944Z,4.95
2022-09-01T21:00:29.249Z,5.03
2022-09-01T21:03:34.094Z,4.88
2022-09-01T21:06:45.536Z,5.45
2022-09-01T21:09:43.682Z,5.07
2022-09-01T21:12:38.050Z,5.50
2022-09-01T21:15:36.240Z,5.07
2022-09-01T21:18:41.763Z,5.40
2022-09-01T21:21:38.471Z,4.97
2022-09-01T21:24:26.901Z,5.32
2022-09-01T21:27:20.071Z,4.63
2022-09-01T21:30:11.107Z,5.68
2022-09-01T21:33:01.662Z,6.30
2022-09-01T21:35:49.893Z,5.60
2022-09-01T21:38:38.561Z,5.88
2022-09-01T21:41:26.871Z,4.55
2022-09-01T21:44:15.845Z,5.03
2022-09-01T21:47:04.446Z,5.15
2022-09-01T21:49:54.362Z,6.60
2022-09-01T21:52:43.034Z,6.25
2022-09-01T21:55:32.339Z,4.82
2022-09-01T21:58:20.990Z,4.47
2022-09-01T22:01:10.511Z,6.95
2022-09-01T22:04:00.515Z,4.70
2022-09-01T22:06:51.582Z,6.40
2022-09-01T22:12:28.579Z,5.07
2022-09-01T22:15:19.539Z,5.22
2022-09-01T22:21:03.673Z,5.03
2022-09-01T22:23:53.320Z,5.63
2022-09-01T22:26:43.312Z,5.22
2022-09-01T22:29:31.645Z,5.88
2022-09-01T22:32:23.200Z,6.22
2022-09-01T22:35:13.339Z,6.28
2022-09-01T22:38:02.195Z,6.10
2022-09-01T22:40:55.670Z,5.53
2022-09-01T22:43:44.141Z,5.68
2022-09-01T22:46:34.829Z,5.68
2022-09-01T22:52:11.837Z,5.20
2022-09-01T22:55:03.298Z,5.38
2022-09-01T22:57:53.843Z,5.85
2022-09-01T23:00:47.044Z,5.95
2022-09-01T23:03:35.322Z,5.25
2022-09-01T23:06:27.917Z,4.57
2022-09-01T23:09:17.640Z,5.65
2022-09-01T23:12:06.042Z,5.28
2022-09-01T23:14:56.141Z,6.45
2022-09-01T23:17:44.617Z,5.03
2022-09-01T23:20:32.839Z,4.97
2022-09-01T23:23:21.537Z,5.38
2022-09-01T23:26:12.379Z,6.05
2022-09-01T23:29:01.336Z,6.05
2022-09-01T23:31:50.949Z,5.00
2022-09-01T23:34:40.259Z,5.65
2022-09-01T23:37:29.011Z,4.95
2022-09-01T23:40:18.319Z,6.28
2022-09-01T23:43:06.781Z,6.18
2022-09-01T23:45:57.397Z,5.72
2022-09-01T23:48:47.495Z,7.53
2022-09-01T23:51:36.363Z,5.57
2022-09-01T23:54:24.643Z,5.28
2022-09-01T23:57:12.963Z,4.47
